Terminal Aerodrome Forecast
Issued by NWS

Home | Current Version | Previous Version | Text Only | Print | Product List | Glossary On
Versions: 1 2 3 4 5 6 7 8 9 10 11 12 13 14 15 16 17 18 19 20 21 22 23
000
FTUS43 KDVN 210520
TAFBRL
TAF
KBRL 210520Z 2106/2206 24005KT P6SM SCT060 BKN250
     FM211000 VRB03KT 5SM BR VCTS BKN060CB
     FM211500 15009KT P6SM BKN080
     FM211900 17013KT P6SM SCT040 BKN150=

USA.gov is the U.S. government's official web portal to all federal, state and local government web resources and services.